Latest Weather Observations for Spitfire Channel

IDQ60801

Issued at 5:22 pm EST Friday 22 June 2018 (issued every 10 minutes, with the page automatically refreshed every 10 minutes)

About weather observations | Map of weather stations | Latest weather observations for QLD | Other Formats
Station Details ID: 040927 Name: SPITFIRE CHANNEL BEACON Lat: -27.05 Lon: 153.27 Height: 7.0 m
Data from the previous 72 hours. | See also: Recent months for locations in Queensland
Date/Time
EST
Temp
°C
App
Temp
°C
Dew
Point
°C
Rel
Hum
%
Delta-T
°C
Wind Press
QNH
hPa
Press
MSL
hPa
Rain since
9am
mm
Dir  Spd
km/h
Gust
km/h
Spd
kts
Gust
kts
22/05:00pm - - - - - SE 26 32 14 17 - - -
22/04:30pm - - - - - SE 22 28 12 15 - - -
22/04:00pm - - - - - SE 24 28 13 15 - - -
22/03:30pm - - - - - SE 19 22 10 12 - - -
22/03:00pm - - - - - SSE 19 22 10 12 - - -
22/02:30pm - - - - - SSE 19 20 10 11 - - -
22/02:00pm - - - - - SSE 19 22 10 12 - - -
22/01:30pm - - - - - SSE 20 24 11 13 - - -
22/01:00pm - - - - - SSE 19 22 10 12 - - -
22/12:30pm - - - - - S 19 22 10 12 - - -
22/12:00pm - - - - - S 17 19 9 10 - - -
22/11:30am - - - - - S 20 22 11 12 - - -
22/11:00am - - - - - S 20 24 11 13 - - -
22/10:30am - - - - - S 22 26 12 14 - - -
22/10:00am - - - - - S 22 24 12 13 - - -
22/09:30am - - - - - S 24 28 13 15 - - -
22/09:00am - - - - - S 26 30 14 16 - - -
22/08:30am - - - - - S 26 32 14 17 - - -
22/08:00am - - - - - S 28 32 15 17 - - -
22/07:30am - - - - - S 30 35 16 19 - - -
22/07:00am - - - - - S 30 35 16 19 - - -
22/06:30am - - - - - S 30 35 16 19 - - -
22/06:00am - - - - - S 32 35 17 19 - - -
22/05:30am - - - - - S 28 32 15 17 - - -
22/05:00am - - - - - S 30 33 16 18 - - -
22/04:30am - - - - - S 30 35 16 19 - - -
22/04:00am - - - - - S 30 35 16 19 - - -
22/03:30am - - - - - SSW 30 35 16 19 - - -
22/03:00am - - - - - SSW 30 35 16 19 - - -
22/02:30am - - - - - SSW 26 30 14 16 - - -
22/02:00am - - - - - SSW 28 32 15 17 - - -
22/01:30am - - - - - SSW 28 33 15 18 - - -
22/01:00am - - - - - SSW 26 30 14 16 - - -
22/12:30am - - - - - SSW 24 28 13 15 - - -
22/12:00am - - - - - SSW 24 28 13 15 - - -
 
Date/Time
EST
Temp
°C
App
Temp
°C
Dew
Point
°C
Rel
Hum
%
Delta-T
°C
Wind Press
QNH
hPa
Press
MSL
hPa
Rain since
9am
mm
Dir  Spd
km/h
Gust
km/h
Spd
kts
Gust
kts
21/11:30pm - - - - - S 24 28 13 15 - - -
21/11:00pm - - - - - S 20 24 11 13 - - -
21/10:30pm - - - - - S 22 26 12 14 - - -
21/10:00pm - - - - - S 20 22 11 12 - - -
21/09:30pm - - - - - SSE 17 20 9 11 - - -
21/09:00pm - - - - - SSE 22 30 12 16 - - -
21/08:30pm - - - - - SSE 20 24 11 13 - - -
21/08:00pm - - - - - SSE 20 22 11 12 - - -
21/07:30pm - - - - - SSE 20 22 11 12 - - -
21/07:00pm - - - - - SSE 19 22 10 12 - - -
21/06:30pm - - - - - SE 22 28 12 15 - - -
21/06:00pm - - - - - SE 26 30 14 16 - - -
21/05:30pm - - - - - SE 26 33 14 18 - - -
21/05:00pm - - - - - SE 24 28 13 15 - - -
21/04:30pm - - - - - SE 24 28 13 15 - - -
21/04:00pm - - - - - SSE 20 24 11 13 - - -
21/03:30pm - - - - - SSE 15 20 8 11 - - -
21/03:00pm - - - - - SSE 19 24 10 13 - - -
21/02:30pm - - - - - SSE 20 24 11 13 - - -
21/02:00pm - - - - - S 19 20 10 11 - - -
21/01:30pm - - - - - S 19 22 10 12 - - -
21/01:00pm - - - - - S 19 24 10 13 - - -
21/12:30pm - - - - - S 22 28 12 15 - - -
21/12:00pm - - - - - S 22 26 12 14 - - -
21/11:30am - - - - - S 24 30 13 16 - - -
21/11:00am - - - - - S 24 30 13 16 - - -
21/10:30am - - - - - SSW 22 26 12 14 - - -
21/10:00am - - - - - SSW 24 28 13 15 - - -
21/09:30am - - - - - SSW 24 28 13 15 - - -
21/09:00am - - - - - S 28 32 15 17 - - -
21/08:30am - - - - - SSW 26 30 14 16 - - -
21/08:00am - - - - - SSW 26 28 14 15 - - -
21/07:30am - - - - - SSW 28 32 15 17 - - -
21/07:00am - - - - - SSW 26 32 14 17 - - -
21/06:30am - - - - - SSW 28 33 15 18 - - -
21/06:00am - - - - - S 24 28 13 15 - - -
21/05:30am - - - - - S 26 30 14 16 - - -
21/05:00am - - - - - SSW 22 28 12 15 - - -
21/04:30am - - - - - SSW 24 28 13 15 - - -
21/04:00am - - - - - SSW 26 30 14 16 - - -
21/03:30am - - - - - S 26 32 14 17 - - -
21/03:00am - - - - - SSW 28 33 15 18 - - -
21/02:30am - - - - - S 26 32 14 17 - - -
21/02:00am - - - - - S 28 32 15 17 - - -
21/01:30am - - - - - S 26 30 14 16 - - -
21/01:00am - - - - - SSW 24 30 13 16 - - -
21/12:30am - - - - - S 24 30 13 16 - - -
21/12:00am - - - - - SSW 22 26 12 14 - - -
 
Date/Time
EST
Temp
°C
App
Temp
°C
Dew
Point
°C
Rel
Hum
%
Delta-T
°C
Wind Press
QNH
hPa
Press
MSL
hPa
Rain since
9am
mm
Dir  Spd
km/h
Gust
km/h
Spd
kts
Gust
kts
20/11:30pm - - - - - SSW 24 28 13 15 - - -
20/11:00pm - - - - - S 24 28 13 15 - - -
20/10:30pm - - - - - S 26 28 14 15 - - -
20/10:00pm - - - - - S 22 28 12 15 - - -
20/09:30pm - - - - - S 24 26 13 14 - - -
20/09:00pm - - - - - S 22 26 12 14 - - -
20/08:30pm - - - - - SSE 22 26 12 14 - - -
20/08:00pm - - - - - S 26 30 14 16 - - -
20/07:30pm - - - - - SSE 22 26 12 14 - - -
20/07:00pm - - - - - SSE 28 32 15 17 - - -
20/06:30pm - - - - - SSE 24 30 13 16 - - -
20/06:00pm - - - - - SSE 17 22 9 12 - - -
20/05:30pm - - - - - SSE 17 20 9 11 - - -
20/05:00pm - - - - - SSE 20 24 11 13 - - -
20/04:30pm - - - - - SSE 22 28 12 15 - - -
20/04:00pm - - - - - SSE 26 30 14 16 - - -
20/03:30pm - - - - - SSE 26 32 14 17 - - -
20/03:00pm - - - - - SSE 26 32 14 17 - - -
20/02:30pm - - - - - S 15 19 8 10 - - -
20/02:00pm - - - - - SSW 17 19 9 10 - - -
20/01:30pm - - - - - SSW 19 20 10 11 - - -
20/01:00pm - - - - - SSW 19 22 10 12 - - -
20/12:30pm - - - - - SSW 20 24 11 13 - - -
20/12:00pm - - - - - SSW 22 26 12 14 - - -
20/11:30am - - - - - SSW 26 30 14 16 - - -
20/11:00am - - - - - SSW 26 33 14 18 - - -
20/10:30am - - - - - SSW 26 30 14 16 - - -
20/10:00am - - - - - SSW 26 30 14 16 - - -
20/09:30am - - - - - SW 24 28 13 15 - - -
20/09:00am - - - - - SW 24 30 13 16 - - -
20/08:30am - - - - - SW 24 30 13 16 - - -
20/08:00am - - - - - SW 28 33 15 18 - - -
20/07:30am - - - - - SW 28 32 15 17 - - -
20/07:00am - - - - - SW 24 28 13 15 - - -
20/06:30am - - - - - SW 26 30 14 16 - - -
20/06:00am - - - - - SW 26 32 14 17 - - -
20/05:30am - - - - - SW 24 30 13 16 - - -
20/05:00am - - - - - SW 26 32 14 17 - - -
20/04:30am - - - - - SW 24 28 13 15 - - -
20/04:00am - - - - - WSW 28 30 15 16 - - -
20/03:30am - - - - - SW 24 28 13 15 - - -
20/03:00am - - - - - SW 20 24 11 13 - - -
20/02:30am - - - - - WSW 20 22 11 12 - - -
20/02:00am - - - - - WSW 19 20 10 11 - - -
20/01:30am - - - - - WSW 19 20 10 11 - - -
20/01:00am - - - - - SW 19 22 10 12 - - -
20/12:30am - - - - - SW 22 26 12 14 - - -
20/12:00am - - - - - WSW 26 30 14 16 - - -
 
Date/Time
EST
Temp
°C
App
Temp
°C
Dew
Point
°C
Rel
Hum
%
Delta-T
°C
Wind Press
QNH
hPa
Press
MSL
hPa
Rain since
9am
mm
Dir  Spd
km/h
Gust
km/h
Spd
kts
Gust
kts
19/11:30pm - - - - - WSW 22 26 12 14 - - -
19/11:00pm - - - - - WSW 22 24 12 13 - - -
19/10:30pm - - - - - WSW 22 24 12 13 - - -
19/10:00pm - - - - - WSW 22 26 12 14 - - -
19/09:30pm - - - - - WSW 22 26 12 14 - - -
19/09:00pm - - - - - WSW 19 24 10 13 - - -
19/08:30pm - - - - - SW 26 33 14 18 - - -
19/08:00pm - - - - - SW 28 33 15 18 - - -
19/07:30pm - - - - - SSW 30 37 16 20 - - -
19/07:00pm - - - - - SW 30 33 16 18 - - -
19/06:30pm - - - - - SW 26 30 14 16 - - -
19/06:00pm - - - - - SW 26 30 14 16 - - -
19/05:30pm - - - - - WSW 24 30 13 16 - - -

Other Formats:

Comma delimited format used in spreadsheet applications
http://www.bom.gov.au/fwo/IDQ60801/IDQ60801.94581.axf

JavaScript Object Notation format (JSON) in row-major order
http://www.bom.gov.au/fwo/IDQ60801/IDQ60801.94581.json